createdAt,value
2022-11-07T00:00:12.664Z,80.04
2022-11-07T00:02:14.806Z,79.96
2022-11-07T00:04:16.409Z,80.33
2022-11-07T00:06:17.839Z,80.44
2022-11-07T00:08:19.266Z,80.15
2022-11-07T00:10:20.712Z,80.85
2022-11-07T00:12:22.140Z,80.87
2022-11-07T00:14:23.890Z,80.64
2022-11-07T00:16:26.667Z,81.29
2022-11-07T00:18:28.287Z,80.66
2022-11-07T00:20:29.709Z,80.85
2022-11-07T00:22:31.183Z,81.16
2022-11-07T00:24:32.634Z,80.81
2022-11-07T00:26:34.466Z,81.37
2022-11-07T00:28:37.428Z,80.74
2022-11-07T00:30:38.863Z,81.47
2022-11-07T00:32:40.276Z,81.26
2022-11-07T00:34:41.726Z,81.18
2022-11-07T00:36:43.182Z,81.60
2022-11-07T00:38:45.066Z,81.87
2022-11-07T00:40:56.841Z,81.50
2022-11-07T00:42:58.305Z,81.51
2022-11-07T00:44:59.731Z,82.06
2022-11-07T00:47:01.178Z,82.16
2022-11-07T00:49:02.622Z,81.97
2022-11-07T00:51:11.831Z,81.83
2022-11-07T00:53:13.696Z,82.57
2022-11-07T00:55:15.449Z,82.06
2022-11-07T00:57:16.886Z,82.56
2022-11-07T00:59:18.574Z,82.74
2022-11-07T01:01:22.829Z,82.23
2022-11-07T01:03:43.424Z,82.66
2022-11-07T01:05:58.779Z,82.58
2022-11-07T01:08:00.238Z,82.17
2022-11-07T01:10:02.205Z,82.41
2022-11-07T01:12:04.108Z,82.74
2022-11-07T01:14:07.079Z,82.58
2022-11-07T01:16:10.245Z,82.76
2022-11-07T01:18:11.759Z,82.30
2022-11-07T01:20:13.262Z,83.14
2022-11-07T01:22:14.703Z,82.99
2022-11-07T01:24:16.858Z,83.35
2022-11-07T01:26:18.877Z,83.46
2022-11-07T01:28:20.308Z,83.40
2022-11-07T01:30:21.743Z,83.08
2022-11-07T01:32:23.193Z,83.15
2022-11-07T01:34:24.617Z,82.27
2022-11-07T01:36:26.749Z,82.97
2022-11-07T01:38:28.567Z,82.71
2022-11-07T01:40:30.518Z,83.15
2022-11-07T01:42:32.214Z,82.85
2022-11-07T01:44:42.517Z,83.32
2022-11-07T01:46:45.194Z,83.10
2022-11-07T01:48:59.945Z,83.02
2022-11-07T01:51:01.757Z,82.82
2022-11-07T01:53:03.296Z,82.47
2022-11-07T01:55:13.075Z,82.12
2022-11-07T01:57:20.981Z,82.34
2022-11-07T01:59:26.086Z,82.78
2022-11-07T02:01:27.773Z,82.31
2022-11-07T02:03:29.303Z,82.13
2022-11-07T02:05:53.690Z,82.61
2022-11-07T02:07:56.650Z,82.19
2022-11-07T02:09:59.133Z,82.07
2022-11-07T02:12:01.705Z,82.67
2022-11-07T02:14:03.338Z,82.54
2022-11-07T02:16:05.452Z,82.07
2022-11-07T02:18:06.981Z,82.41
2022-11-07T02:20:09.087Z,82.82
2022-11-07T02:22:35.042Z,82.46
2022-11-07T02:24:38.834Z,82.64
2022-11-07T02:26:41.584Z,82.52
2022-11-07T02:28:46.116Z,82.05
2022-11-07T02:30:47.565Z,82.20
2022-11-07T02:32:49.351Z,82.64
2022-11-07T02:35:02.915Z,83.26
2022-11-07T02:37:11.811Z,82.72
2022-11-07T02:39:13.267Z,82.47
2022-11-07T02:41:23.339Z,81.92
2022-11-07T02:43:28.129Z,82.36
2022-11-07T02:45:33.115Z,82.88
2022-11-07T02:47:34.536Z,82.78
2022-11-07T02:49:35.942Z,82.79
2022-11-07T02:51:37.489Z,82.84
2022-11-07T02:53:39.005Z,83.32
2022-11-07T02:55:40.437Z,83.06
2022-11-07T02:57:42.421Z,82.97
2022-11-07T02:59:43.835Z,83.13
2022-11-07T03:01:45.430Z,83.43
2022-11-07T03:03:49.749Z,83.32
2022-11-07T03:05:51.197Z,83.70
2022-11-07T03:07:52.759Z,83.48
2022-11-07T03:09:54.178Z,83.49
2022-11-07T03:11:55.599Z,83.46
2022-11-07T03:13:57.044Z,83.87
2022-11-07T03:15:58.933Z,83.95
2022-11-07T03:18:00.403Z,83.89
2022-11-07T03:20:02.058Z,83.92
2022-11-07T03:22:03.620Z,83.65
2022-11-07T03:24:05.623Z,83.76
2022-11-07T03:26:07.060Z,84.07
2022-11-07T03:28:08.752Z,83.53
2022-11-07T03:30:10.693Z,83.59
2022-11-07T03:32:12.141Z,83.55
2022-11-07T03:34:13.567Z,83.59
2022-11-07T03:36:15.005Z,83.43
2022-11-07T03:38:16.422Z,83.41
2022-11-07T03:40:18.000Z,83.85
2022-11-07T03:42:19.438Z,83.80
2022-11-07T03:44:21.065Z,83.37
2022-11-07T03:46:22.558Z,83.32
2022-11-07T03:48:24.112Z,83.16
2022-11-07T03:50:25.683Z,83.32
2022-11-07T03:52:27.096Z,82.84
2022-11-07T03:54:28.554Z,83.37
2022-11-07T03:56:30.063Z,83.35
2022-11-07T03:58:31.470Z,83.00
2022-11-07T04:00:32.910Z,83.21
2022-11-07T04:02:34.399Z,83.46
2022-11-07T04:04:35.909Z,83.45
2022-11-07T04:06:37.347Z,83.67
2022-11-07T04:08:38.856Z,83.61
2022-11-07T04:10:40.407Z,83.77
2022-11-07T04:13:00.322Z,83.72
2022-11-07T04:15:20.228Z,83.83
2022-11-07T04:17:21.809Z,83.66
2022-11-07T04:19:26.411Z,83.73
2022-11-07T04:21:27.961Z,83.64
2022-11-07T04:23:29.472Z,83.61
2022-11-07T04:25:49.490Z,83.69
2022-11-07T04:27:50.953Z,83.57
2022-11-07T04:29:52.390Z,83.62
2022-11-07T04:31:53.833Z,83.53
2022-11-07T04:33:55.290Z,83.86
2022-11-07T04:35:56.726Z,83.84
2022-11-07T04:37:59.027Z,83.27
2022-11-07T04:40:00.449Z,83.51
2022-11-07T04:42:01.884Z,83.55
2022-11-07T04:44:03.370Z,83.35
2022-11-07T04:46:04.940Z,83.00
2022-11-07T04:48:06.713Z,83.15
2022-11-07T04:50:11.074Z,82.60
2022-11-07T04:52:12.873Z,83.05
2022-11-07T04:54:16.311Z,82.59
2022-11-07T04:56:17.740Z,83.12
2022-11-07T04:58:19.183Z,82.76
2022-11-07T05:00:21.537Z,82.97
2022-11-07T05:02:27.626Z,82.66
2022-11-07T05:04:29.303Z,82.83
2022-11-07T05:06:35.956Z,82.85
2022-11-07T05:08:37.377Z,83.00
2022-11-07T05:10:38.884Z,82.76
2022-11-07T05:12:40.330Z,83.02
2022-11-07T05:14:41.818Z,82.50
2022-11-07T05:16:43.913Z,83.13
2022-11-07T05:18:45.696Z,83.19
2022-11-07T05:20:47.126Z,83.47
2022-11-07T05:23:06.866Z,83.50
2022-11-07T05:25:08.932Z,83.62
2022-11-07T05:27:17.673Z,83.40
2022-11-07T05:29:18.984Z,83.47
2022-11-07T05:31:20.436Z,83.81
2022-11-07T05:33:21.933Z,83.31
2022-11-07T05:35:23.783Z,83.72
2022-11-07T05:37:25.258Z,83.16
2022-11-07T05:39:26.668Z,83.58
2022-11-07T05:41:28.092Z,83.88
2022-11-07T05:43:29.539Z,84.22
2022-11-07T05:45:32.166Z,84.22
2022-11-07T05:47:33.690Z,83.98
2022-11-07T05:49:35.117Z,83.77
2022-11-07T05:51:36.586Z,83.72
2022-11-07T05:53:38.171Z,84.17
2022-11-07T05:55:39.650Z,83.84
2022-11-07T05:57:41.076Z,84.02
2022-11-07T05:59:42.529Z,84.36
2022-11-07T06:01:46.576Z,84.21
2022-11-07T06:03:50.288Z,84.51
2022-11-07T06:05:51.747Z,84.45
2022-11-07T06:07:53.157Z,84.39
2022-11-07T06:09:54.591Z,84.37
2022-11-07T06:11:56.072Z,84.29
2022-11-07T06:13:57.512Z,84.23
2022-11-07T06:15:58.949Z,84.51
2022-11-07T06:18:01.768Z,84.26
2022-11-07T06:20:04.581Z,84.21
2022-11-07T06:22:05.990Z,83.50
2022-11-07T06:24:12.411Z,83.37
2022-11-07T06:26:16.454Z,84.18
2022-11-07T06:28:17.928Z,84.24
2022-11-07T06:30:19.424Z,84.19
2022-11-07T06:32:20.855Z,84.18
2022-11-07T06:34:22.315Z,84.45
2022-11-07T06:36:23.778Z,84.43
2022-11-07T06:38:25.265Z,84.26
2022-11-07T06:40:26.751Z,83.58
2022-11-07T06:42:28.342Z,83.55
2022-11-07T06:44:29.823Z,83.72
2022-11-07T06:46:31.314Z,83.74
2022-11-07T06:48:33.488Z,83.81
2022-11-07T06:50:35.731Z,83.54
2022-11-07T06:52:37.222Z,83.22
2022-11-07T06:54:38.833Z,83.46
2022-11-07T06:56:40.404Z,83.59
2022-11-07T06:58:42.050Z,83.88
2022-11-07T07:00:43.523Z,83.97
2022-11-07T07:02:58.009Z,83.96
2022-11-07T07:05:00.380Z,83.58
2022-11-07T07:07:01.823Z,83.99
2022-11-07T07:09:06.723Z,84.25
2022-11-07T07:11:11.115Z,84.43
2022-11-07T07:13:14.193Z,84.58
2022-11-07T07:15:15.982Z,84.07
2022-11-07T07:17:17.404Z,83.99
2022-11-07T07:19:18.831Z,83.91
2022-11-07T07:21:20.337Z,84.41
2022-11-07T07:23:22.035Z,84.57
2022-11-07T07:25:23.829Z,83.96
2022-11-07T07:27:25.348Z,84.04
2022-11-07T07:29:26.816Z,83.96
2022-11-07T07:31:31.214Z,83.19
2022-11-07T07:33:32.628Z,82.82
2022-11-07T07:35:34.042Z,82.93
2022-11-07T07:37:35.534Z,82.60
2022-11-07T07:39:37.047Z,82.84
2022-11-07T07:41:40.364Z,83.24
2022-11-07T07:43:42.092Z,82.72
2022-11-07T07:45:43.548Z,82.74
2022-11-07T07:47:45.221Z,82.23
2022-11-07T07:49:46.667Z,82.48
2022-11-07T07:51:48.172Z,82.93
2022-11-07T07:53:49.604Z,82.89
2022-11-07T07:55:51.094Z,82.75
2022-11-07T07:57:52.574Z,82.83
2022-11-07T07:59:54.017Z,82.98
2022-11-07T08:01:57.367Z,82.89
2022-11-07T08:04:01.831Z,82.58
2022-11-07T08:06:05.605Z,83.28
2022-11-07T08:08:08.209Z,82.65
2022-11-07T08:10:34.902Z,82.30
2022-11-07T08:12:31.246Z,82.79
2022-11-07T08:14:32.912Z,82.64
2022-11-07T08:16:34.396Z,82.71
2022-11-07T08:18:40.811Z,82.94
2022-11-07T08:20:42.457Z,82.72
2022-11-07T08:22:43.886Z,82.40
2022-11-07T08:24:45.376Z,82.05
2022-11-07T08:26:46.852Z,82.18
2022-11-07T08:28:48.310Z,81.97
2022-11-07T08:30:55.932Z,82.20
2022-11-07T08:33:03.110Z,81.53
2022-11-07T08:35:04.882Z,82.46
2022-11-07T08:37:06.317Z,82.35
2022-11-07T08:39:07.727Z,81.98
2022-11-07T08:41:09.255Z,82.14
2022-11-07T08:43:10.979Z,82.16
2022-11-07T08:45:12.454Z,82.52
2022-11-07T08:47:14.065Z,82.65
2022-11-07T08:49:15.650Z,82.07
2022-11-07T08:51:17.105Z,82.23
2022-11-07T08:53:18.781Z,81.95
2022-11-07T08:55:20.519Z,82.62
2022-11-07T08:57:21.964Z,82.67
2022-11-07T08:59:23.428Z,82.42
2022-11-07T09:01:25.024Z,81.94
2022-11-07T09:05:48.743Z,81.59
2022-11-07T09:07:50.183Z,81.46
2022-11-07T09:09:51.616Z,82.00
2022-11-07T09:11:53.033Z,81.57
2022-11-07T09:13:55.262Z,81.54
2022-11-07T09:15:59.299Z,81.23
2022-11-07T09:18:05.618Z,81.49
2022-11-07T09:20:09.354Z,80.83
2022-11-07T09:22:10.794Z,81.11
2022-11-07T09:24:12.299Z,81.31
2022-11-07T09:26:13.793Z,80.60
2022-11-07T09:28:16.041Z,80.75
2022-11-07T09:30:18.871Z,80.44
2022-11-07T09:32:43.164Z,80.49
2022-11-07T09:34:44.928Z,80.81
2022-11-07T09:36:46.395Z,80.48
2022-11-07T09:38:47.814Z,79.93
2022-11-07T09:41:04.715Z,80.01
2022-11-07T09:43:15.092Z,80.21
2022-11-07T09:45:16.850Z,79.74
2022-11-07T09:47:23.451Z,79.89
2022-11-07T09:49:45.016Z,80.01
2022-11-07T09:51:52.318Z,79.86
2022-11-07T09:53:59.984Z,79.86
2022-11-07T09:56:06.311Z,80.30
2022-11-07T09:58:20.705Z,80.21
2022-11-07T10:00:22.736Z,80.00
2022-11-07T10:02:27.353Z,80.78
2022-11-07T10:04:29.010Z,81.18
2022-11-07T10:06:35.548Z,80.89
2022-11-07T10:09:03.448Z,81.27
2022-11-07T10:11:15.672Z,81.57
2022-11-07T10:13:38.824Z,81.42
2022-11-07T10:16:17.986Z,81.60
2022-11-07T10:18:37.307Z,81.51
2022-11-07T10:21:37.720Z,81.38
2022-11-07T10:23:49.132Z,80.99
2022-11-07T10:26:02.463Z,80.81
2022-11-07T10:28:11.730Z,80.07
2022-11-07T10:30:19.586Z,79.93
2022-11-07T10:32:20.985Z,80.13
2022-11-07T10:34:34.989Z,79.80
2022-11-07T10:36:36.455Z,79.82
2022-11-07T10:38:41.112Z,79.37
2022-11-07T10:40:43.717Z,78.91
2022-11-07T10:42:47.174Z,78.55
2022-11-07T10:44:49.069Z,78.74
2022-11-07T10:46:53.403Z,78.14
2022-11-07T10:48:58.882Z,78.29
2022-11-07T10:51:00.321Z,77.94
2022-11-07T10:53:09.694Z,77.87
2022-11-07T10:55:16.803Z,77.87
2022-11-07T10:57:22.267Z,77.74
2022-11-07T10:59:31.433Z,77.87
2022-11-07T11:01:36.282Z,77.17
2022-11-07T11:03:45.443Z,77.27
2022-11-07T11:05:47.398Z,76.70
2022-11-07T11:07:49.348Z,76.03
2022-11-07T11:09:54.665Z,76.09
2022-11-07T11:11:56.231Z,75.62
2022-11-07T11:14:11.333Z,75.72
2022-11-07T11:16:22.291Z,75.30
2022-11-07T11:18:23.874Z,75.30
2022-11-07T11:20:39.959Z,75.22
2022-11-07T11:22:42.873Z,75.08
2022-11-07T11:24:44.547Z,75.60
2022-11-07T11:26:49.055Z,75.37
2022-11-07T11:28:57.984Z,75.76
2022-11-07T11:31:05.153Z,75.65
2022-11-07T11:33:17.263Z,75.99
2022-11-07T11:35:42.380Z,76.30
2022-11-07T11:37:51.466Z,75.97
2022-11-07T11:39:58.697Z,76.19
2022-11-07T11:42:00.386Z,76.56
2022-11-07T11:44:26.650Z,76.52
2022-11-07T11:46:33.431Z,76.67
2022-11-07T11:48:44.259Z,76.42
2022-11-07T11:50:55.171Z,76.22
2022-11-07T11:52:58.420Z,76.39
2022-11-07T11:55:01.494Z,76.37
2022-11-07T11:57:45.852Z,76.43
2022-11-07T11:59:50.216Z,76.31
2022-11-07T12:01:58.370Z,76.09
2022-11-07T12:04:18.620Z,76.07
2022-11-07T12:06:40.036Z,76.03
2022-11-07T12:09:00.039Z,76.92
2022-11-07T12:11:13.560Z,77.38
2022-11-07T12:13:30.246Z,78.10
2022-11-07T12:15:52.971Z,78.68
2022-11-07T12:18:09.591Z,78.72
2022-11-07T12:20:51.733Z,79.11
2022-11-07T12:23:05.085Z,78.76
2022-11-07T12:25:21.297Z,78.02
2022-11-07T12:27:42.612Z,77.96
2022-11-07T12:30:11.339Z,77.61
2022-11-07T12:32:37.193Z,77.30
2022-11-07T12:35:05.696Z,77.27
2022-11-07T12:37:48.158Z,76.75
2022-11-07T12:40:28.587Z,77.16
2022-11-07T12:42:58.867Z,76.78
2022-11-07T12:45:19.687Z,76.37
2022-11-07T12:47:27.241Z,76.40
2022-11-07T12:49:31.443Z,76.07
2022-11-07T12:52:00.552Z,75.58
2022-11-07T12:54:48.445Z,75.65
2022-11-07T12:56:52.882Z,75.95
2022-11-07T12:58:54.882Z,76.21
2022-11-07T13:00:57.297Z,75.75
2022-11-07T13:03:10.178Z,75.60
2022-11-07T13:05:38.103Z,75.86
2022-11-07T13:07:58.368Z,75.88
2022-11-07T13:10:10.835Z,75.80
2022-11-07T13:12:36.608Z,76.16
2022-11-07T13:14:40.775Z,76.43
2022-11-07T13:16:51.383Z,76.31
2022-11-07T13:18:53.142Z,76.45
2022-11-07T13:21:06.147Z,76.96
2022-11-07T13:23:15.563Z,76.76
2022-11-07T13:25:17.698Z,76.60
2022-11-07T13:27:24.776Z,76.72
2022-11-07T13:29:35.726Z,76.92
2022-11-07T13:31:40.235Z,76.67
2022-11-07T13:33:41.687Z,76.93
2022-11-07T13:35:54.221Z,76.78
2022-11-07T13:38:08.266Z,76.50
2022-11-07T13:40:29.442Z,76.93
2022-11-07T13:42:33.637Z,77.08
2022-11-07T13:44:38.213Z,76.69
2022-11-07T13:46:46.768Z,77.03
2022-11-07T13:48:50.983Z,77.16
2022-11-07T13:50:59.266Z,77.08
2022-11-07T13:53:04.600Z,77.42
2022-11-07T13:55:20.243Z,77.22
2022-11-07T13:57:31.606Z,76.99
2022-11-07T13:59:49.949Z,77.03
2022-11-07T14:01:57.218Z,76.93
2022-11-07T14:03:58.890Z,77.21
2022-11-07T14:06:02.527Z,77.22
2022-11-07T14:08:15.814Z,77.18
2022-11-07T14:10:28.896Z,77.02
2022-11-07T14:12:30.838Z,76.82
2022-11-07T14:14:32.408Z,76.89
2022-11-07T14:16:34.067Z,76.82
2022-11-07T14:18:47.446Z,76.43
2022-11-07T14:20:51.632Z,76.71
2022-11-07T14:23:00.560Z,76.86
2022-11-07T14:25:02.046Z,76.53
2022-11-07T14:27:12.708Z,76.93
2022-11-07T14:29:21.955Z,76.82
2022-11-07T14:31:30.793Z,77.09
2022-11-07T14:33:32.241Z,77.28
2022-11-07T14:35:35.274Z,76.97
2022-11-07T14:37:36.706Z,77.36
2022-11-07T14:39:38.240Z,77.30
2022-11-07T14:41:42.158Z,77.14
2022-11-07T14:43:44.885Z,77.44
2022-11-07T14:46:11.494Z,77.43
2022-11-07T14:48:12.334Z,77.51
2022-11-07T14:50:21.996Z,77.43
2022-11-07T14:52:29.292Z,77.79
2022-11-07T14:54:37.289Z,77.63
2022-11-07T14:56:43.071Z,77.88
2022-11-07T14:58:46.271Z,78.16
2022-11-07T15:01:12.820Z,77.89
2022-11-07T15:03:21.738Z,78.05
2022-11-07T15:05:42.335Z,78.27
2022-11-07T15:07:48.999Z,78.52
2022-11-07T15:09:53.298Z,78.66
2022-11-07T15:11:58.478Z,78.57
2022-11-07T15:14:01.894Z,78.74
2022-11-07T15:16:07.011Z,79.09
2022-11-07T15:18:25.892Z,79.24
2022-11-07T15:20:36.498Z,79.59
2022-11-07T15:22:39.690Z,79.17
2022-11-07T15:24:46.591Z,79.58
2022-11-07T15:26:59.587Z,79.69
2022-11-07T15:29:20.886Z,79.98
2022-11-07T15:31:31.366Z,79.92
2022-11-07T15:33:32.941Z,80.27
2022-11-07T15:35:49.766Z,80.27
2022-11-07T15:38:01.836Z,80.34
2022-11-07T15:40:13.849Z,80.77
2022-11-07T15:42:15.723Z,80.47
2022-11-07T15:44:17.266Z,80.34
2022-11-07T15:46:22.369Z,80.58
2022-11-07T15:48:39.799Z,80.75
2022-11-07T15:50:44.050Z,81.24
2022-11-07T15:52:47.142Z,81.02
2022-11-07T15:54:48.632Z,81.26
2022-11-07T15:56:53.336Z,81.52
2022-11-07T15:58:59.233Z,81.51
2022-11-07T16:01:01.002Z,81.46
2022-11-07T16:03:02.736Z,81.85
2022-11-07T16:05:04.387Z,81.69
2022-11-07T16:07:12.100Z,81.90
2022-11-07T16:09:18.844Z,81.81
2022-11-07T16:11:20.298Z,82.18
2022-11-07T16:13:21.826Z,81.67
2022-11-07T16:15:25.147Z,82.08
2022-11-07T16:17:26.576Z,82.09
2022-11-07T16:19:30.213Z,82.47
2022-11-07T16:21:31.651Z,82.43
2022-11-07T16:23:33.119Z,82.32
2022-11-07T16:25:36.022Z,82.85
2022-11-07T16:27:37.511Z,83.00
2022-11-07T16:29:40.491Z,83.05
2022-11-07T16:31:42.107Z,82.86
2022-11-07T16:33:43.622Z,82.54
2022-11-07T16:35:47.883Z,82.38
2022-11-07T16:37:49.432Z,82.74
2022-11-07T16:39:50.858Z,83.10
2022-11-07T16:41:52.287Z,82.57
2022-11-07T16:43:53.817Z,82.51
2022-11-07T16:45:56.460Z,82.62
2022-11-07T16:47:59.223Z,82.75
2022-11-07T16:50:01.168Z,82.76
2022-11-07T16:52:03.662Z,83.01
2022-11-07T16:54:05.281Z,82.31
2022-11-07T16:56:12.566Z,82.70
2022-11-07T16:58:21.826Z,83.13
2022-11-07T17:00:23.776Z,82.70
2022-11-07T17:02:26.105Z,82.90
2022-11-07T17:04:27.635Z,82.87
2022-11-07T17:06:34.619Z,82.51
2022-11-07T17:08:43.498Z,83.20
2022-11-07T17:10:46.267Z,83.00
2022-11-07T17:12:47.886Z,82.96
2022-11-07T17:14:50.200Z,83.05
2022-11-07T17:16:52.781Z,83.51
2022-11-07T17:18:54.203Z,82.77
2022-11-07T17:20:56.420Z,83.17
2022-11-07T17:22:58.342Z,83.05
2022-11-07T17:24:59.946Z,83.29
2022-11-07T17:27:01.661Z,83.65
2022-11-07T17:29:05.767Z,83.69
2022-11-07T17:31:07.917Z,83.90
2022-11-07T17:33:09.405Z,83.65
2022-11-07T17:35:31.016Z,83.21
2022-11-07T17:37:32.880Z,83.54
2022-11-07T17:39:34.348Z,83.63
2022-11-07T17:41:35.816Z,82.99
2022-11-07T17:43:37.232Z,83.44
2022-11-07T17:45:39.673Z,83.53
2022-11-07T17:47:41.267Z,83.68
2022-11-07T17:49:42.765Z,83.52
2022-11-07T17:51:45.142Z,83.64
2022-11-07T17:53:46.781Z,83.09
2022-11-07T17:55:48.224Z,83.12
2022-11-07T17:57:49.749Z,83.12
2022-11-07T17:59:51.747Z,83.14
2022-11-07T18:01:53.370Z,82.88
2022-11-07T18:03:55.338Z,83.07
2022-11-07T18:05:56.914Z,83.19
2022-11-07T18:07:58.344Z,82.92
2022-11-07T18:10:01.853Z,83.07
2022-11-07T18:12:04.528Z,83.29
2022-11-07T18:14:05.983Z,83.64
2022-11-07T18:16:14.161Z,83.67
2022-11-07T18:18:15.898Z,83.75
2022-11-07T18:20:17.605Z,83.95
2022-11-07T18:22:19.116Z,84.20
2022-11-07T18:24:20.569Z,84.71
2022-11-07T18:26:30.615Z,84.79
2022-11-07T18:28:34.166Z,85.27
2022-11-07T18:30:36.607Z,85.73
2022-11-07T18:32:38.088Z,85.69
2022-11-07T18:34:39.621Z,86.26
2022-11-07T18:36:42.359Z,86.53
2022-11-07T18:38:44.686Z,86.55
2022-11-07T18:41:00.961Z,86.06
2022-11-07T18:43:02.448Z,86.36
2022-11-07T18:45:04.377Z,86.10
2022-11-07T18:47:05.911Z,86.21
2022-11-07T18:49:07.705Z,86.47
2022-11-07T18:51:21.086Z,86.51
2022-11-07T18:53:23.565Z,86.26
2022-11-07T18:55:27.521Z,86.26
2022-11-07T18:57:29.204Z,86.72
2022-11-07T18:59:30.694Z,86.51
2022-11-07T19:01:32.792Z,86.88
2022-11-07T19:03:35.361Z,86.53
2022-11-07T19:05:41.024Z,86.86
2022-11-07T19:07:44.840Z,86.45
2022-11-07T19:09:46.247Z,86.43
2022-11-07T19:11:47.836Z,86.71
2022-11-07T19:13:49.377Z,87.16
2022-11-07T19:15:50.950Z,87.58
2022-11-07T19:17:53.061Z,87.89
2022-11-07T19:19:54.497Z,87.45
2022-11-07T19:21:56.011Z,87.54
2022-11-07T19:23:57.526Z,87.23
2022-11-07T19:25:59.019Z,87.36
2022-11-07T19:28:00.490Z,87.34
2022-11-07T19:30:02.004Z,86.96
2022-11-07T19:32:03.814Z,86.77
2022-11-07T19:34:05.822Z,87.26
2022-11-07T19:36:12.299Z,87.15
2022-11-07T19:38:14.284Z,87.56
2022-11-07T19:40:15.827Z,87.52
2022-11-07T19:42:17.256Z,87.99
2022-11-07T19:44:18.850Z,88.07
2022-11-07T19:46:22.446Z,88.38
2022-11-07T19:48:24.005Z,88.30
2022-11-07T19:50:25.478Z,88.14
2022-11-07T19:52:26.927Z,88.57
2022-11-07T19:54:28.368Z,88.15
2022-11-07T19:56:31.728Z,88.16
2022-11-07T19:58:35.486Z,88.56
2022-11-07T20:00:37.004Z,88.15
2022-11-07T20:02:44.052Z,88.18
2022-11-07T20:04:46.811Z,88.61
2022-11-07T20:06:50.222Z,88.67
2022-11-07T20:08:52.218Z,88.67
2022-11-07T20:10:53.673Z,88.66
2022-11-07T20:12:55.680Z,88.81
2022-11-07T20:14:57.136Z,88.62
2022-11-07T20:16:59.561Z,88.85
2022-11-07T20:19:01.634Z,88.88
2022-11-07T20:21:06.197Z,88.80
2022-11-07T20:23:07.670Z,89.02
2022-11-07T20:25:09.481Z,89.17
2022-11-07T20:27:10.973Z,88.82
2022-11-07T20:29:13.680Z,88.47
2022-11-07T20:31:23.628Z,88.56
2022-11-07T20:33:25.131Z,88.83
2022-11-07T20:35:26.577Z,88.68
2022-11-07T20:37:28.041Z,88.47
2022-11-07T20:39:29.577Z,88.62
2022-11-07T20:41:31.139Z,88.73
2022-11-07T20:43:33.981Z,88.04
2022-11-07T20:45:35.874Z,88.49
2022-11-07T20:47:37.330Z,88.30
2022-11-07T20:49:41.264Z,88.33
2022-11-07T20:51:43.756Z,88.00
2022-11-07T20:53:50.040Z,88.10
2022-11-07T20:55:52.171Z,87.72
2022-11-07T20:57:55.560Z,87.59
2022-11-07T20:59:57.111Z,87.41
2022-11-07T21:02:03.011Z,87.14
2022-11-07T21:04:07.273Z,87.24
2022-11-07T21:06:11.459Z,86.82
2022-11-07T21:08:13.055Z,87.08
2022-11-07T21:10:14.896Z,86.67
2022-11-07T21:12:16.386Z,86.87
2022-11-07T21:14:17.815Z,86.75
2022-11-07T21:16:20.915Z,86.29
2022-11-07T21:18:22.560Z,86.19
2022-11-07T21:20:24.658Z,86.25
2022-11-07T21:22:29.320Z,86.41
2022-11-07T21:24:31.632Z,86.13
2022-11-07T21:26:35.891Z,85.47
2022-11-07T21:28:40.442Z,85.56
2022-11-07T21:30:41.889Z,85.72
2022-11-07T21:32:43.393Z,85.44
2022-11-07T21:34:46.259Z,85.42
2022-11-07T21:36:47.766Z,85.43
2022-11-07T21:38:49.480Z,85.66
2022-11-07T21:40:51.828Z,85.15
2022-11-07T21:42:54.979Z,85.48
2022-11-07T21:44:56.652Z,85.45
2022-11-07T21:46:58.075Z,85.21
2022-11-07T21:48:59.900Z,85.41
2022-11-07T21:51:05.436Z,84.81
2022-11-07T21:53:07.433Z,85.43
2022-11-07T21:55:08.964Z,85.28
2022-11-07T21:57:10.840Z,85.24
2022-11-07T21:59:12.360Z,84.76
2022-11-07T22:01:13.878Z,84.89
2022-11-07T22:03:15.664Z,84.47
2022-11-07T22:05:17.434Z,84.46
2022-11-07T22:07:18.985Z,84.23
2022-11-07T22:09:21.311Z,84.23
2022-11-07T22:11:22.771Z,84.65
2022-11-07T22:13:24.231Z,83.65
2022-11-07T22:15:25.664Z,84.12
2022-11-07T22:17:27.177Z,83.96
2022-11-07T22:19:28.778Z,83.92
2022-11-07T22:21:31.449Z,84.15
2022-11-07T22:23:34.955Z,84.02
2022-11-07T22:25:36.371Z,83.53
2022-11-07T22:27:37.879Z,83.38
2022-11-07T22:29:39.326Z,83.56
2022-11-07T22:31:40.752Z,83.68
2022-11-07T22:33:42.222Z,83.17
2022-11-07T22:35:43.655Z,83.21
2022-11-07T22:37:45.092Z,83.05
2022-11-07T22:39:46.603Z,83.33
2022-11-07T22:41:48.074Z,83.08
2022-11-07T22:43:50.667Z,82.96
2022-11-07T22:45:52.592Z,83.22
2022-11-07T22:47:54.039Z,83.05
2022-11-07T22:49:55.519Z,83.21
2022-11-07T22:51:56.995Z,82.98
2022-11-07T22:54:02.054Z,83.27
2022-11-07T22:56:15.350Z,83.23
2022-11-07T22:58:16.979Z,83.24
2022-11-07T23:00:21.817Z,83.11
2022-11-07T23:02:23.762Z,82.85
2022-11-07T23:04:28.686Z,82.98
2022-11-07T23:06:34.151Z,82.85
2022-11-07T23:08:36.129Z,82.70
2022-11-07T23:10:37.625Z,83.23
2022-11-07T23:12:39.076Z,82.44
2022-11-07T23:14:40.522Z,82.73
2022-11-07T23:16:48.204Z,83.06
2022-11-07T23:18:49.727Z,83.96
2022-11-07T23:21:26.571Z,83.23
2022-11-07T23:23:28.016Z,83.14
2022-11-07T23:25:29.497Z,83.59
2022-11-07T23:27:30.953Z,83.52
2022-11-07T23:29:32.395Z,83.81
2022-11-07T23:31:34.199Z,83.62
2022-11-07T23:33:37.037Z,84.07
2022-11-07T23:35:38.651Z,83.99
2022-11-07T23:37:40.073Z,83.77
2022-11-07T23:39:42.165Z,83.84
2022-11-07T23:41:44.600Z,84.22
2022-11-07T23:43:49.830Z,84.01
2022-11-07T23:46:12.155Z,83.63
2022-11-07T23:48:32.446Z,84.51
2022-11-07T23:50:52.368Z,84.58
2022-11-07T23:52:55.040Z,84.21
2022-11-07T23:55:15.005Z,84.58
2022-11-07T23:57:16.464Z,84.68
2022-11-07T23:59:36.635Z,84.25
